sensor_id;sensor_type;location;lat;lon;timestamp;temperature;humidity
66610;DHT22;53468;48.276;14.416;2023-12-07T08:38:54;2.40;91.10
66610;DHT22;53468;48.276;14.416;2023-12-07T08:44:09;2.40;91.00
66610;DHT22;53468;48.276;14.416;2023-12-07T08:50:23;2.50;91.10
66610;DHT22;53468;48.276;14.416;2023-12-07T11:20:45;3.30;88.00
66610;DHT22;53468;48.276;14.416;2023-12-07T11:26:05;3.40;87.20
66610;DHT22;53468;48.276;14.416;2023-12-07T11:31:17;3.40;87.10
66610;DHT22;53468;48.276;14.416;2023-12-07T11:36:43;3.40;87.10
66610;DHT22;53468;48.276;14.416;2023-12-07T11:41:53;3.30;86.70
66610;DHT22;53468;48.276;14.416;2023-12-07T11:53:49;3.40;87.80
66610;DHT22;53468;48.276;14.416;2023-12-07T11:59:19;3.50;86.80
66610;DHT22;53468;48.276;14.416;2023-12-07T12:05:31;3.50;87.10
66610;DHT22;53468;48.276;14.416;2023-12-07T12:11:05;3.60;86.30
66610;DHT22;53468;48.276;14.416;2023-12-07T12:16:41;3.60;85.60
66610;DHT22;53468;48.276;14.416;2023-12-07T12:22:47;3.70;85.90
66610;DHT22;53468;48.276;14.416;2023-12-07T12:28:56;3.90;85.50
66610;DHT22;53468;48.276;14.416;2023-12-07T12:34:59;3.90;84.70
66610;DHT22;53468;48.276;14.416;2023-12-07T12:40:44;4.00;84.50
66610;DHT22;53468;48.276;14.416;2023-12-07T13:41:45;3.50;85.70
66610;DHT22;53468;48.276;14.416;2023-12-07T13:47:11;3.40;86.30
66610;DHT22;53468;48.276;14.416;2023-12-07T13:52:47;3.40;86.30
66610;DHT22;53468;48.276;14.416;2023-12-07T14:04:28;3.30;86.70
66610;DHT22;53468;48.276;14.416;2023-12-07T14:16:05;3.20;87.30
66610;DHT22;53468;48.276;14.416;2023-12-07T14:21:36;3.10;87.20
66610;DHT22;53468;48.276;14.416;2023-12-07T14:27:15;3.00;86.90
66610;DHT22;53468;48.276;14.416;2023-12-07T14:38:30;2.90;87.30
66610;DHT22;53468;48.276;14.416;2023-12-07T14:44:06;2.80;88.10
66610;DHT22;53468;48.276;14.416;2023-12-07T16:02:33;0.80;89.60
66610;DHT22;53468;48.276;14.416;2023-12-07T17:08:41;-0.60;91.10
66610;DHT22;53468;48.276;14.416;2023-12-07T17:14:11;-0.70;91.70
66610;DHT22;53468;48.276;14.416;2023-12-07T17:19:16;-0.80;92.00
66610;DHT22;53468;48.276;14.416;2023-12-07T17:24:27;-0.90;91.80
66610;DHT22;53468;48.276;14.416;2023-12-07T17:29:29;-0.90;92.30
66610;DHT22;53468;48.276;14.416;2023-12-07T17:34:34;-0.90;91.80
66610;DHT22;53468;48.276;14.416;2023-12-07T17:39:55;-1.00;92.00
66610;DHT22;53468;48.276;14.416;2023-12-07T17:45:24;-1.00;92.20
66610;DHT22;53468;48.276;14.416;2023-12-07T17:50:55;-1.20;92.20
66610;DHT22;53468;48.276;14.416;2023-12-07T17:56:15;-1.20;92.10
66610;DHT22;53468;48.276;14.416;2023-12-07T18:01:56;-1.40;91.00
66610;DHT22;53468;48.276;14.416;2023-12-07T18:08:03;-1.50;91.20
66610;DHT22;53468;48.276;14.416;2023-12-07T18:13:14;-1.50;91.80
66610;DHT22;53468;48.276;14.416;2023-12-07T18:18:49;-1.70;91.70
66610;DHT22;53468;48.276;14.416;2023-12-07T18:24:50;-1.80;91.60
66610;DHT22;53468;48.276;14.416;2023-12-07T18:30:43;-1.70;91.80
66610;DHT22;53468;48.276;14.416;2023-12-07T18:36:33;-1.80;91.60
66610;DHT22;53468;48.276;14.416;2023-12-07T18:41:50;-1.90;92.10
66610;DHT22;53468;48.276;14.416;2023-12-07T18:53:03;-2.00;91.80
66610;DHT22;53468;48.276;14.416;2023-12-07T18:58:11;-2.00;91.00
66610;DHT22;53468;48.276;14.416;2023-12-07T19:03:43;-2.30;90.50
66610;DHT22;53468;48.276;14.416;2023-12-07T19:09:42;-2.40;91.10
66610;DHT22;53468;48.276;14.416;2023-12-07T19:15:09;-2.40;91.90
66610;DHT22;53468;48.276;14.416;2023-12-07T19:20:21;-2.40;91.30
66610;DHT22;53468;48.276;14.416;2023-12-07T19:25:50;-2.60;91.40
66610;DHT22;53468;48.276;14.416;2023-12-07T19:30:57;-2.50;91.30
66610;DHT22;53468;48.276;14.416;2023-12-07T19:36:14;-2.50;91.30
66610;DHT22;53468;48.276;14.416;2023-12-07T19:41:20;-2.60;91.00
66610;DHT22;53468;48.276;14.416;2023-12-07T19:46:37;-2.70;90.40
66610;DHT22;53468;48.276;14.416;2023-12-07T19:52:04;-2.70;90.50
66610;DHT22;53468;48.276;14.416;2023-12-07T19:57:21;-2.80;90.50
66610;DHT22;53468;48.276;14.416;2023-12-07T20:03:03;-2.90;90.30
66610;DHT22;53468;48.276;14.416;2023-12-07T20:08:29;-2.90;91.40
66610;DHT22;53468;48.276;14.416;2023-12-07T20:14:03;-2.90;91.30
66610;DHT22;53468;48.276;14.416;2023-12-07T20:26:03;-3.00;91.10
66610;DHT22;53468;48.276;14.416;2023-12-07T20:31:38;-3.00;90.80
66610;DHT22;53468;48.276;14.416;2023-12-07T20:37:06;-3.10;91.10
66610;DHT22;53468;48.276;14.416;2023-12-07T20:42:26;-3.10;91.20
66610;DHT22;53468;48.276;14.416;2023-12-07T20:48:16;-3.00;91.00
66610;DHT22;53468;48.276;14.416;2023-12-07T21:00:15;-3.10;91.10
66610;DHT22;53468;48.276;14.416;2023-12-07T21:43:19;-2.90;91.70
66610;DHT22;53468;48.276;14.416;2023-12-07T21:48:26;-3.00;90.20
66610;DHT22;53468;48.276;14.416;2023-12-07T22:11:09;-3.20;90.10
66610;DHT22;53468;48.276;14.416;2023-12-07T22:16:39;-3.20;89.70
66610;DHT22;53468;48.276;14.416;2023-12-07T22:21:49;-3.30;89.40
66610;DHT22;53468;48.276;14.416;2023-12-07T22:27:01;-3.40;88.00
66610;DHT22;53468;48.276;14.416;2023-12-07T22:32:08;-3.60;88.90
66610;DHT22;53468;48.276;14.416;2023-12-07T22:37:37;-3.60;89.50
66610;DHT22;53468;48.276;14.416;2023-12-07T22:49:09;-3.80;87.70
66610;DHT22;53468;48.276;14.416;2023-12-07T23:30:20;-4.20;90.20
